Time;durP1;ratioP1;P1;durP2;ratioP2;P2;SDS_P1;SDS_P2;PMS_P1;PMS_P2;Temp;Humidity;BMP_temperature;BMP_pressure;BME280_temperature;BME280_humidity;BME280_pressure;Samples;Min_cycle;Max_cycle;Signal;HPM_P1;HPM_P2
2023/06/03 00:00:54;;;;;;;5.32;1.85;;;17.70;37.50;;;;;;4949188;28;20113;-84
2023/06/03 00:03:23;;;;;;;8.05;2.05;;;17.70;37.60;;;;;;4982869;28;20285;-85
2023/06/03 00:05:49;;;;;;;6.88;2.85;;;17.60;37.50;;;;;;4980773;28;20034;-85
2023/06/03 00:08:17;;;;;;;7.40;2.60;;;17.60;37.60;;;;;;4981066;28;20164;-85
2023/06/03 00:10:44;;;;;;;7.35;2.00;;;17.50;37.50;;;;;;4980651;28;20120;-85
2023/06/03 00:13:16;;;;;;;6.07;2.23;;;17.50;37.70;;;;;;4980116;28;20114;-85
2023/06/03 00:15:42;;;;;;;10.50;2.58;;;17.40;37.60;;;;;;4975647;28;20381;-85
2023/06/03 00:18:11;;;;;;;7.35;3.08;;;17.40;37.70;;;;;;4984452;28;20030;-83
2023/06/03 00:20:47;;;;;;;4.90;2.10;;;17.30;37.60;;;;;;4979327;28;20068;-82
2023/06/03 00:23:15;;;;;;;5.00;2.03;;;17.30;37.70;;;;;;4978744;28;20042;-80
2023/06/03 00:25:44;;;;;;;6.03;2.05;;;17.30;37.80;;;;;;4971045;28;20035;-81
2023/06/03 00:28:13;;;;;;;8.20;2.95;;;17.20;37.80;;;;;;4980230;28;20109;-82
2023/06/03 00:30:42;;;;;;;5.70;2.33;;;17.20;37.80;;;;;;4960764;28;20121;-82
2023/06/03 00:33:11;;;;;;;5.60;2.10;;;17.20;37.90;;;;;;4983400;28;20524;-82
2023/06/03 00:35:37;;;;;;;6.82;2.15;;;17.10;37.80;;;;;;4983019;28;20431;-82
2023/06/03 00:38:04;;;;;;;3.88;2.13;;;17.10;37.90;;;;;;4988142;28;20498;-83
2023/06/03 00:40:42;;;;;;;5.80;1.90;;;17.00;37.80;;;;;;4988649;28;20042;-81
2023/06/03 00:43:09;;;;;;;6.35;2.72;;;17.00;37.90;;;;;;4977629;28;20035;-82
2023/06/03 00:45:35;;;;;;;5.38;2.00;;;17.00;38.00;;;;;;4984903;28;20041;-82
2023/06/03 00:48:01;;;;;;;5.05;2.00;;;16.90;37.90;;;;;;4985130;28;20054;-84
2023/06/03 00:50:32;;;;;;;5.07;1.98;;;16.90;38.00;;;;;;4990769;28;20042;-86
2023/06/03 00:53:01;;;;;;;5.38;2.47;;;16.90;38.10;;;;;;4989505;28;20022;-86
2023/06/03 00:55:30;;;;;;;7.80;2.88;;;16.80;38.00;;;;;;4984060;28;20048;-87
2023/06/03 00:57:56;;;;;;;7.45;2.53;;;16.80;38.10;;;;;;4977921;28;20553;-87
2023/06/03 01:00:28;;;;;;;6.93;2.67;;;16.80;38.20;;;;;;4996131;28;20043;-85
2023/06/03 01:03:01;;;;;;;4.72;2.15;;;16.70;38.00;;;;;;4980699;28;20375;-82
2023/06/03 01:05:28;;;;;;;5.93;2.03;;;16.70;38.20;;;;;;4980026;28;20030;-83
2023/06/03 01:08:08;;;;;;;6.82;2.83;;;16.60;38.00;;;;;;4966215;28;20199;-83
2023/06/03 01:10:46;;;;;;;4.13;1.65;;;16.60;38.20;;;;;;4977537;28;20314;-84
2023/06/03 01:13:30;;;;;;;5.75;1.92;;;16.50;38.10;;;;;;4978554;28;20074;-85
2023/06/03 01:16:04;;;;;;;7.78;2.78;;;16.50;38.20;;;;;;4971131;28;20069;-84
2023/06/03 01:18:40;;;;;;;6.82;3.05;;;16.40;38.10;;;;;;4984054;28;20339;-86
2023/06/03 01:21:12;;;;;;;3.78;1.70;;;16.40;38.20;;;;;;4980438;28;20112;-85
2023/06/03 01:23:43;;;;;;;7.30;3.10;;;16.30;38.10;;;;;;4982078;28;20319;-84
2023/06/03 01:26:11;;;;;;;4.85;1.88;;;16.30;38.30;;;;;;4981725;28;20042;-83
2023/06/03 01:28:41;;;;;;;5.93;2.28;;;16.30;38.40;;;;;;4977626;28;20436;-83
2023/06/03 01:31:10;;;;;;;6.03;1.77;;;16.20;38.30;;;;;;4976452;28;20038;-83
2023/06/03 01:33:37;;;;;;;7.45;2.60;;;16.20;38.40;;;;;;4976480;28;20313;-82
2023/06/03 01:36:07;;;;;;;6.53;2.22;;;16.10;38.30;;;;;;4982090;28;20042;-83
2023/06/03 01:38:42;;;;;;;6.90;2.28;;;16.10;38.30;;;;;;4979663;28;20038;-83
2023/06/03 01:41:15;;;;;;;5.53;2.40;;;16.10;38.40;;;;;;4980962;28;20044;-84
2023/06/03 01:43:44;;;;;;;5.82;2.40;;;16.10;38.50;;;;;;4999250;28;20254;-84
2023/06/03 01:46:11;;;;;;;6.75;2.28;;;16.00;38.50;;;;;;4988595;28;20041;-84
2023/06/03 01:48:37;;;;;;;8.45;2.53;;;16.00;38.50;;;;;;4986154;28;20038;-84
2023/06/03 01:51:05;;;;;;;7.13;2.22;;;15.90;38.40;;;;;;4967514;28;20573;-84
2023/06/03 01:53:32;;;;;;;7.90;2.42;;;16.00;38.80;;;;;;4966013;28;20034;-84
2023/06/03 01:55:59;;;;;;;9.43;2.53;;;15.90;38.50;;;;;;4987464;28;20132;-84
2023/06/03 01:58:29;;;;;;;4.63;2.58;;;15.90;38.70;;;;;;4988181;28;20030;-83
2023/06/03 02:00:55;;;;;;;6.45;2.33;;;15.90;38.70;;;;;;4969054;28;20077;-85
2023/06/03 02:03:24;;;;;;;6.40;2.72;;;15.80;38.60;;;;;;4983127;28;20042;-82
2023/06/03 02:05:50;;;;;;;8.07;2.50;;;15.80;38.70;;;;;;4978789;28;20363;-82
2023/06/03 02:08:17;;;;;;;6.63;2.33;;;15.80;38.80;;;;;;4981182;28;20039;-83
2023/06/03 02:10:45;;;;;;;10.65;2.72;;;15.80;38.90;;;;;;4989473;28;20053;-82
2023/06/03 02:13:14;;;;;;;5.18;2.28;;;15.70;38.80;;;;;;4984571;28;20035;-83
2023/06/03 02:15:41;;;;;;;7.75;2.53;;;15.70;38.90;;;;;;4987035;28;20030;-82
2023/06/03 02:18:09;;;;;;;7.47;3.08;;;15.60;38.80;;;;;;4986893;28;20026;-82
2023/06/03 02:20:36;;;;;;;5.68;2.30;;;15.60;38.90;;;;;;4982502;28;20090;-82
2023/06/03 02:23:11;;;;;;;6.40;2.38;;;15.50;38.80;;;;;;4987827;28;20127;-82
2023/06/03 02:25:37;;;;;;;5.72;2.15;;;15.50;39.50;;;;;;4986616;28;20037;-83
2023/06/03 02:28:04;;;;;;;4.50;2.03;;;15.50;39.00;;;;;;4987938;28;20096;-83
2023/06/03 02:30:40;;;;;;;7.15;2.60;;;15.40;38.90;;;;;;4982135;28;20038;-83
2023/06/03 02:33:07;;;;;;;4.68;2.15;;;15.40;39.00;;;;;;4987890;28;20544;-83
2023/06/03 02:35:34;;;;;;;5.03;2.13;;;15.40;39.10;;;;;;4969922;28;20257;-84
2023/06/03 02:38:03;;;;;;;5.93;2.38;;;15.30;39.00;;;;;;4988148;28;20065;-84
2023/06/03 02:40:32;;;;;;;5.03;2.17;;;15.30;39.10;;;;;;4986118;28;20039;-84
2023/06/03 02:42:59;;;;;;;8.40;2.50;;;15.20;39.00;;;;;;4992052;28;20042;-83
2023/06/03 02:45:25;;;;;;;8.70;3.08;;;15.20;39.10;;;;;;4992587;28;20038;-84
2023/06/03 02:47:51;;;;;;;5.05;2.60;;;15.20;39.20;;;;;;4986887;28;20062;-83
2023/06/03 02:50:18;;;;;;;5.68;2.17;;;15.20;39.30;;;;;;4987782;28;20096;-82
2023/06/03 02:52:46;;;;;;;5.65;2.35;;;15.10;39.20;;;;;;4988906;28;20038;-83
2023/06/03 02:55:16;;;;;;;7.50;2.22;;;15.10;39.20;;;;;;4990301;28;20061;-84
2023/06/03 02:57:42;;;;;;;7.78;2.60;;;15.10;39.30;;;;;;4986780;28;20383;-81
2023/06/03 03:00:10;;;;;;;5.32;2.75;;;15.00;39.20;;;;;;4970312;28;20035;-82
2023/06/03 03:02:37;;;;;;;5.43;2.35;;;15.00;39.30;;;;;;4977488;28;20113;-82
2023/06/03 03:05:03;;;;;;;6.47;2.25;;;15.00;39.40;;;;;;4976382;28;20626;-83
2023/06/03 03:07:32;;;;;;;7.43;2.20;;;15.00;39.40;;;;;;4978080;28;20042;-83
2023/06/03 03:09:59;;;;;;;4.57;2.00;;;15.00;39.50;;;;;;4983383;28;20038;-82
2023/06/03 03:12:26;;;;;;;5.38;2.38;;;14.90;39.40;;;;;;4986994;28;20101;-82
2023/06/03 03:14:52;;;;;;;5.70;2.53;;;14.90;39.50;;;;;;4971326;28;20040;-83
2023/06/03 03:17:19;;;;;;;5.05;2.08;;;14.90;39.60;;;;;;4984646;28;20034;-83
2023/06/03 03:19:45;;;;;;;7.80;3.00;;;14.80;39.50;;;;;;4981466;28;20470;-83
2023/06/03 03:22:12;;;;;;;4.55;2.45;;;14.80;39.60;;;;;;4991814;28;20125;-83
2023/06/03 03:24:40;;;;;;;8.13;3.20;;;14.80;39.60;;;;;;4971779;28;20375;-82
2023/06/03 03:27:13;;;;;;;6.93;2.50;;;14.70;39.60;;;;;;4982467;28;20430;-83
2023/06/03 03:29:45;;;;;;;4.50;2.22;;;14.70;39.60;;;;;;4983191;28;20030;-82
2023/06/03 03:32:12;;;;;;;5.70;3.08;;;14.70;39.70;;;;;;4986562;28;20046;-82
2023/06/03 03:35:07;;;;;;;6.95;2.33;;;14.60;39.60;;;;;;4982034;28;20089;-82
2023/06/03 03:38:02;;;;;;;4.80;2.20;;;14.60;39.80;;;;;;4967987;28;20065;-82
2023/06/03 03:40:31;;;;;;;5.55;2.40;;;14.50;39.60;;;;;;4981212;28;20122;-82
2023/06/03 03:42:59;;;;;;;4.22;2.35;;;14.50;39.60;;;;;;4982650;28;20105;-82
2023/06/03 03:45:39;;;;;;;7.35;2.30;;;14.40;39.60;;;;;;4989719;28;20483;-83
2023/06/03 03:48:20;;;;;;;6.10;2.88;;;14.40;39.70;;;;;;4978385;28;20584;-82
2023/06/03 03:50:50;;;;;;;5.55;2.75;;;14.40;39.70;;;;;;4972110;28;20046;-81
2023/06/03 03:53:28;;;;;;;5.15;2.88;;;14.40;39.80;;;;;;4974634;28;20157;-82
2023/06/03 03:55:56;;;;;;;;;;;14.30;39.70;;;;;;4975772;28;20394;-84
2023/06/03 03:58:41;;;;;;;7.05;2.35;;;14.30;39.60;;;;;;4984730;28;19913;-84
2023/06/03 04:01:18;;;;;;;4.22;2.03;;;14.30;39.50;;;;;;4977673;28;20042;-83
2023/06/03 04:03:54;;;;;;;5.97;2.38;;;14.30;39.70;;;;;;4983582;28;20042;-82
2023/06/03 04:06:38;;;;;;;6.70;2.55;;;14.20;39.50;;;;;;4974393;28;20030;-83
2023/06/03 04:09:07;;;;;;;6.43;2.28;;;14.20;39.70;;;;;;4971671;28;20125;-82
2023/06/03 04:11:38;;;;;;;4.93;2.35;;;14.10;39.60;;;;;;4979246;28;20046;-82
2023/06/03 04:14:08;;;;;;;5.88;3.10;;;14.10;39.70;;;;;;4984993;28;20126;-82
2023/06/03 04:17:02;;;;;;;4.88;3.05;;;14.10;39.80;;;;;;4987782;28;20445;-82
2023/06/03 04:19:48;;;;;;;9.88;3.17;;;14.10;40.00;;;;;;4984506;28;20053;-82
2023/06/03 04:22:23;;;;;;;8.35;2.60;;;14.10;39.80;;;;;;5002819;28;20049;-81
2023/06/03 04:24:58;;;;;;;3.95;2.25;;;14.10;39.90;;;;;;4989596;28;20062;-81
2023/06/03 04:27:45;;;;;;;8.13;2.88;;;14.10;40.10;;;;;;4982061;28;20066;-82
2023/06/03 04:30:16;;;;;;;6.93;3.45;;;14.00;39.80;;;;;;4981950;28;20046;-81
2023/06/03 04:32:42;;;;;;;7.20;2.30;;;14.10;40.10;;;;;;4987031;28;20030;-82
2023/06/03 04:35:09;;;;;;;4.75;1.88;;;14.00;40.00;;;;;;4986593;28;20112;-81
2023/06/03 04:37:38;;;;;;;6.07;2.70;;;14.00;40.10;;;;;;4972399;28;20040;-83
2023/06/03 04:40:09;;;;;;;7.80;2.30;;;14.00;40.10;;;;;;4953487;28;20046;-83
2023/06/03 04:42:35;;;;;;;7.07;2.97;;;14.10;40.40;;;;;;4977553;28;20026;-82
2023/06/03 04:45:06;;;;;;;5.70;2.60;;;14.00;40.20;;;;;;4974470;28;20034;-81
2023/06/03 04:47:35;;;;;;;5.65;2.78;;;14.10;40.50;;;;;;4976273;28;20058;-80
2023/06/03 04:50:04;;;;;;;6.07;2.53;;;14.10;40.50;;;;;;4981038;28;20509;-81
2023/06/03 04:52:34;;;;;;;7.50;3.20;;;14.10;40.50;;;;;;4981279;28;20053;-80
2023/06/03 04:55:02;;;;;;;6.95;3.05;;;14.10;40.50;;;;;;4984050;28;20390;-84
2023/06/03 04:57:31;;;;;;;4.97;2.58;;;14.10;40.50;;;;;;4976429;28;20105;-85
2023/06/03 04:59:57;;;;;;;4.82;2.25;;;14.10;40.60;;;;;;4982785;28;20641;-82
2023/06/03 05:02:29;;;;;;;7.28;2.83;;;14.10;40.50;;;;;;4973047;28;20035;-81
2023/06/03 05:04:59;;;;;;;4.65;2.38;;;14.10;40.50;;;;;;4979634;28;20027;-80
2023/06/03 05:07:26;;;;;;;5.50;2.63;;;14.20;40.70;;;;;;4977911;28;20071;-80
2023/06/03 05:09:57;;;;;;;5.93;2.33;;;14.20;40.70;;;;;;4979452;28;20128;-79
2023/06/03 05:12:28;;;;;;;8.32;2.92;;;14.20;40.70;;;;;;4994274;28;20116;-80
2023/06/03 05:14:55;;;;;;;5.38;2.45;;;14.20;40.70;;;;;;4977693;28;20533;-80
2023/06/03 05:17:24;;;;;;;8.68;2.63;;;14.20;40.70;;;;;;4979548;28;20038;-82
2023/06/03 05:19:50;;;;;;;5.95;2.40;;;14.20;40.70;;;;;;4977841;28;20053;-81
2023/06/03 05:22:18;;;;;;;5.30;2.58;;;14.20;40.70;;;;;;5006397;28;20038;-81
2023/06/03 05:24:44;;;;;;;5.43;2.63;;;14.20;40.70;;;;;;4982277;28;20030;-81
2023/06/03 05:27:11;;;;;;;5.93;2.70;;;14.30;40.90;;;;;;4983579;28;20065;-81
2023/06/03 05:29:46;;;;;;;5.95;2.67;;;14.30;40.90;;;;;;4971098;28;20074;-81
2023/06/03 05:32:12;;;;;;;6.20;3.28;;;14.30;40.90;;;;;;4987625;28;20038;-80
2023/06/03 05:34:39;;;;;;;7.03;3.08;;;14.40;41.10;;;;;;4986452;28;20483;-82
2023/06/03 05:37:15;;;;;;;5.38;2.47;;;14.40;41.10;;;;;;4986958;28;20066;-82
2023/06/03 05:39:42;;;;;;;5.20;2.95;;;14.40;41.10;;;;;;4991007;28;20668;-82
2023/06/03 05:42:09;;;;;;;5.22;2.60;;;14.50;41.30;;;;;;4982862;28;20030;-78
2023/06/03 05:44:39;;;;;;;6.28;3.75;;;14.50;41.20;;;;;;4982959;28;20041;-86
2023/06/03 05:47:05;;;;;;;3.97;2.28;;;14.60;41.30;;;;;;4991320;28;20061;-86
2023/06/03 05:49:32;;;;;;;7.22;3.38;;;14.60;41.20;;;;;;4982432;28;20038;-87
2023/06/03 05:52:04;;;;;;;5.15;2.45;;;14.70;41.40;;;;;;4979820;28;20092;-84
2023/06/03 05:54:34;;;;;;;7.78;3.22;;;14.80;41.50;;;;;;4973476;28;20038;-83
2023/06/03 05:57:04;;;;;;;7.40;3.05;;;14.80;41.40;;;;;;4975205;28;20042;-85
2023/06/03 05:59:32;;;;;;;7.53;3.10;;;14.90;42.10;;;;;;4980954;28;20265;-87
2023/06/03 06:01:58;;;;;;;8.60;2.70;;;15.00;41.60;;;;;;4984084;28;20039;-89
2023/06/03 06:04:27;;;;;;;6.25;2.80;;;15.10;41.70;;;;;;4984072;28;20449;-84
2023/06/03 06:06:57;;;;;;;7.38;3.55;;;15.30;41.90;;;;;;4982073;28;20064;-89
2023/06/03 06:09:24;;;;;;;6.22;3.28;;;15.40;41.90;;;;;;4997667;28;20049;-87
2023/06/03 06:11:54;;;;;;;6.30;2.88;;;15.60;42.00;;;;;;4980262;28;20096;-88
2023/06/03 06:14:22;;;;;;;5.53;2.75;;;15.90;42.20;;;;;;4975597;28;20707;-87
2023/06/03 06:16:52;;;;;;;4.93;2.47;;;16.20;42.50;;;;;;4980113;28;20026;-85
2023/06/03 06:19:18;;;;;;;6.55;2.97;;;16.60;42.70;;;;;;4981472;28;20065;-88
2023/06/03 06:21:47;;;;;;;6.13;2.35;;;17.00;42.80;;;;;;4955373;28;20034;-87
2023/06/03 06:24:19;;;;;;;6.13;2.85;;;17.50;42.90;;;;;;4978203;28;20449;-87
2023/06/03 06:26:49;;;;;;;5.68;2.55;;;18.10;43.00;;;;;;4974886;28;20039;-86
2023/06/03 06:29:15;;;;;;;8.75;3.13;;;18.60;43.00;;;;;;4983052;28;20041;-88
2023/06/03 06:31:45;;;;;;;8.52;2.92;;;19.10;43.60;;;;;;4982120;28;20558;-88
2023/06/03 06:34:17;;;;;;;5.15;2.67;;;19.50;43.00;;;;;;4978264;28;20162;-88
2023/06/03 06:36:54;;;;;;;5.90;2.55;;;20.20;43.30;;;;;;4962367;28;20042;-82
2023/06/03 06:39:34;;;;;;;6.28;2.42;;;20.80;43.40;;;;;;4979344;28;20030;-90
2023/06/03 06:42:11;;;;;;;8.88;2.80;;;21.40;43.50;;;;;;4995140;28;20040;-89
2023/06/03 06:44:47;;;;;;;7.22;2.50;;;22.10;43.60;;;;;;4972011;28;20131;-88
2023/06/03 06:47:23;;;;;;;8.68;3.13;;;22.80;43.60;;;;;;4980047;28;20058;-87
2023/06/03 06:49:58;;;;;;;11.50;3.40;;;23.10;43.30;;;;;;4996741;28;20034;-88
2023/06/03 06:52:35;;;;;;;5.55;2.75;;;23.40;43.40;;;;;;4961559;28;20027;-86
2023/06/03 06:55:10;;;;;;;8.07;3.05;;;23.70;43.50;;;;;;4991672;28;20038;-88
2023/06/03 06:57:37;;;;;;;7.45;2.60;;;24.00;43.70;;;;;;4953971;28;20100;-83
2023/06/03 07:00:04;;;;;;;4.90;2.50;;;24.30;44.00;;;;;;4996299;28;20038;-87
2023/06/03 07:02:30;;;;;;;6.50;2.42;;;24.60;44.20;;;;;;4979510;28;20070;-85
2023/06/03 07:04:56;;;;;;;7.60;2.50;;;24.90;44.40;;;;;;4981730;28;20488;-85
2023/06/03 07:07:27;;;;;;;8.73;3.67;;;25.20;44.20;;;;;;4973752;28;20037;-86
2023/06/03 07:09:55;;;;;;;5.18;2.60;;;25.70;43.60;;;;;;4979254;28;20302;-87
2023/06/03 07:12:22;;;;;;;4.72;2.38;;;26.30;42.90;;;;;;4978649;28;20050;-87
2023/06/03 07:14:59;;;;;;;6.70;2.75;;;26.80;42.10;;;;;;4993931;28;20304;-87
2023/06/03 07:17:31;;;;;;;5.28;2.60;;;27.30;41.40;;;;;;4965722;28;20030;-85
2023/06/03 07:19:58;;;;;;;7.28;3.45;;;27.60;40.90;;;;;;4971515;28;20038;-87
2023/06/03 07:22:28;;;;;;;4.80;2.15;;;27.60;40.90;;;;;;4982036;28;20583;-88
2023/06/03 07:24:54;;;;;;;6.32;2.50;;;27.50;40.90;;;;;;4970497;28;20122;-88
2023/06/03 07:27:28;;;;;;;6.10;2.33;;;27.40;40.90;;;;;;4979689;28;20288;-88
2023/06/03 07:30:07;;;;;;;4.70;1.92;;;27.30;40.90;;;;;;4989270;28;20036;-88
2023/06/03 07:32:33;;;;;;;6.90;2.63;;;27.30;40.90;;;;;;4977554;28;20073;-87
2023/06/03 07:35:03;;;;;;;5.25;2.65;;;27.60;40.50;;;;;;4962849;28;20150;-87
2023/06/03 07:37:29;;;;;;;4.00;2.13;;;28.00;39.80;;;;;;4973288;28;20158;-88
2023/06/03 07:40:13;;;;;;;6.45;2.17;;;28.40;39.20;;;;;;4975191;28;20456;-84
2023/06/03 07:42:40;;;;;;;5.07;2.35;;;28.80;38.40;;;;;;4974447;28;20038;-86
2023/06/03 07:45:13;;;;;;;3.70;2.25;;;29.00;38.20;;;;;;4976276;28;20041;-86
2023/06/03 07:47:40;;;;;;;7.65;2.10;;;29.00;37.90;;;;;;4974288;28;20396;-85
2023/06/03 07:50:23;;;;;;;3.78;2.53;;;29.10;37.90;;;;;;4980069;28;20042;-88
2023/06/03 07:53:01;;;;;;;5.55;2.17;;;29.60;37.20;;;;;;4982750;28;20049;-89
2023/06/03 07:55:44;;;;;;;4.82;2.42;;;30.10;36.70;;;;;;4982956;28;20038;-88
2023/06/03 07:58:11;;;;;;;7.75;2.80;;;30.60;36.10;;;;;;4976424;28;20085;-86
2023/06/03 08:00:58;;;;;;;5.50;2.30;;;30.90;36.10;;;;;;4975383;28;20038;-82
2023/06/03 08:03:26;;;;;;;5.82;2.35;;;30.90;35.60;;;;;;4973070;28;20541;-85
2023/06/03 08:05:52;;;;;;;7.53;2.55;;;30.60;36.10;;;;;;4978958;28;20035;-83
2023/06/03 08:08:18;;;;;;;6.38;2.72;;;30.30;36.40;;;;;;4974612;28;20047;-87
2023/06/03 08:10:50;;;;;;;7.05;2.50;;;30.00;36.50;;;;;;4967234;28;20050;-87
2023/06/03 08:13:18;;;;;;;13.13;3.25;;;29.60;36.80;;;;;;4990621;28;20056;-85
2023/06/03 08:15:48;;;;;;;5.35;2.35;;;29.20;37.00;;;;;;4989089;28;20038;-84
2023/06/03 08:18:30;;;;;;;5.88;2.17;;;28.80;37.20;;;;;;4982381;28;20041;-83
2023/06/03 08:21:03;;;;;;;7.13;2.45;;;28.50;37.10;;;;;;4975618;28;20046;-83
2023/06/03 08:23:30;;;;;;;7.75;3.05;;;28.30;37.40;;;;;;4972286;28;20042;-82
2023/06/03 08:26:00;;;;;;;7.43;2.22;;;28.10;37.50;;;;;;4976177;28;20058;-83
2023/06/03 08:28:29;;;;;;;;;;;28.00;37.60;;;;;;4983060;28;20502;-83
2023/06/03 08:30:55;;;;;;;6.43;2.63;;;27.90;37.70;;;;;;4976049;28;19945;-82
2023/06/03 08:33:21;;;;;;;5.03;2.28;;;27.70;37.80;;;;;;4972041;28;20392;-83
2023/06/03 08:35:48;;;;;;;4.28;2.20;;;27.60;37.80;;;;;;4974213;28;20716;-83
2023/06/03 08:38:17;;;;;;;4.47;2.13;;;27.60;37.80;;;;;;4976130;28;20112;-83
2023/06/03 08:40:56;;;;;;;3.53;1.45;;;27.50;37.80;;;;;;4972634;28;20251;-84
2023/06/03 08:43:32;;;;;;;5.18;2.10;;;27.50;37.90;;;;;;4976679;28;20031;-86
2023/06/03 08:46:29;;;;;;;5.22;2.67;;;27.60;38.50;;;;;;4986553;28;20448;-85
2023/06/03 08:49:03;;;;;;;4.43;2.08;;;27.60;37.70;;;;;;4983737;28;20382;-83
2023/06/03 08:51:42;;;;;;;6.60;2.15;;;27.60;37.70;;;;;;4977637;28;20050;-87
2023/06/03 08:54:29;;;;;;;5.82;2.47;;;27.60;37.70;;;;;;4974292;28;20192;-85
2023/06/03 08:57:10;;;;;;;5.20;2.58;;;27.60;37.70;;;;;;4982321;28;20045;-86
2023/06/03 08:59:40;;;;;;;6.07;2.45;;;27.60;37.70;;;;;;4979149;28;20121;-80
2023/06/03 09:02:10;;;;;;;6.95;1.92;;;27.60;37.80;;;;;;4983187;28;20493;-87
2023/06/03 09:04:38;;;;;;;6.75;2.35;;;27.60;37.80;;;;;;5003164;28;20134;-86
2023/06/03 09:07:09;;;;;;;3.67;2.00;;;27.60;37.70;;;;;;4969011;28;20126;-83
2023/06/03 09:09:36;;;;;;;4.68;2.08;;;27.60;37.70;;;;;;4982300;28;20105;-82
2023/06/03 09:12:04;;;;;;;5.82;2.30;;;27.70;37.70;;;;;;4983124;28;20118;-84
2023/06/03 09:14:38;;;;;;;4.72;2.53;;;27.70;37.70;;;;;;4983131;28;20510;-84
2023/06/03 09:17:05;;;;;;;7.45;2.10;;;27.70;37.70;;;;;;4980886;28;20045;-84
2023/06/03 09:19:32;;;;;;;4.50;2.53;;;27.70;37.70;;;;;;4977616;28;20062;-85
2023/06/03 09:22:00;;;;;;;4.13;1.50;;;27.80;37.80;;;;;;4981580;28;20042;-86
2023/06/03 09:24:26;;;;;;;4.72;1.92;;;27.90;38.00;;;;;;4978181;28;20030;-80
2023/06/03 09:26:53;;;;;;;4.55;2.45;;;27.90;38.00;;;;;;4979687;28;20046;-79
2023/06/03 09:29:20;;;;;;;6.10;2.28;;;28.00;38.00;;;;;;4981163;28;20035;-82
2023/06/03 09:31:49;;;;;;;6.95;2.67;;;28.00;37.90;;;;;;4980802;28;20050;-80
2023/06/03 09:34:16;;;;;;;5.72;2.75;;;28.10;37.70;;;;;;4993790;28;20242;-82
2023/06/03 09:36:47;;;;;;;3.35;1.80;;;28.20;37.60;;;;;;4986277;28;20188;-96
2023/06/03 09:39:32;;;;;;;7.03;2.55;;;28.40;37.60;;;;;;4994023;28;20135;-92
2023/06/03 09:42:02;;;;;;;4.57;2.55;;;28.50;37.50;;;;;;4979033;28;20035;-80
2023/06/03 09:44:39;;;;;;;5.68;2.13;;;28.60;37.50;;;;;;4983677;28;20053;-80
2023/06/03 09:47:05;;;;;;;5.15;2.33;;;28.60;37.40;;;;;;4978062;28;20051;-82
2023/06/03 09:49:34;;;;;;;5.13;2.28;;;28.70;37.50;;;;;;4981167;28;20045;-79
2023/06/03 09:52:07;;;;;;;3.95;2.17;;;28.70;37.30;;;;;;4978739;28;20038;-91
2023/06/03 09:54:42;;;;;;;6.82;2.90;;;28.80;37.40;;;;;;4987069;28;20053;-85
2023/06/03 09:57:10;;;;;;;8.80;2.80;;;28.80;37.00;;;;;;4977339;28;20609;-87
2023/06/03 09:59:44;;;;;;;7.25;2.50;;;28.60;36.60;;;;;;4991173;28;20069;-85
2023/06/03 10:02:11;;;;;;;8.43;3.22;;;28.40;36.80;;;;;;4982489;28;20152;-84
2023/06/03 10:04:46;;;;;;;7.90;2.67;;;28.10;37.10;;;;;;4984055;28;20038;-84
2023/06/03 10:07:17;;;;;;;15.30;4.00;;;27.80;36.30;;;;;;4979669;28;20045;-86
2023/06/03 10:09:45;;;;;;;6.75;2.30;;;27.60;36.40;;;;;;4989990;28;20494;-85
2023/06/03 10:12:12;;;;;;;6.20;2.28;;;27.40;36.70;;;;;;4978002;28;20042;-88
2023/06/03 10:14:45;;;;;;;5.50;2.63;;;27.40;36.80;;;;;;4969960;28;20031;-84
2023/06/03 10:17:24;;;;;;;5.47;2.40;;;27.50;36.90;;;;;;4966429;28;20231;-83
2023/06/03 10:19:50;;;;;;;6.55;2.15;;;27.60;37.00;;;;;;4986191;28;20045;-84
2023/06/03 10:22:19;;;;;;;6.13;2.17;;;27.70;36.90;;;;;;4977662;28;20037;-84
2023/06/03 10:24:49;;;;;;;6.53;2.65;;;27.80;36.80;;;;;;4972637;28;20101;-84
2023/06/03 10:27:26;;;;;;;6.85;2.30;;;27.90;36.70;;;;;;4978254;28;20030;-86
2023/06/03 10:29:56;;;;;;;5.25;1.98;;;28.00;36.70;;;;;;4982743;28;20065;-84
2023/06/03 10:32:26;;;;;;;6.20;2.58;;;28.10;36.60;;;;;;4978839;28;20053;-83
2023/06/03 10:34:59;;;;;;;4.18;1.98;;;28.30;36.50;;;;;;4989821;28;20335;-86
2023/06/03 10:37:25;;;;;;;4.82;2.08;;;28.40;36.40;;;;;;4984112;28;20291;-84
2023/06/03 10:39:54;;;;;;;4.03;1.77;;;28.50;36.30;;;;;;4982291;28;20043;-83
2023/06/03 10:42:30;;;;;;;4.68;2.08;;;28.60;36.30;;;;;;4979158;28;20125;-82
2023/06/03 10:44:56;;;;;;;3.95;1.90;;;28.60;36.10;;;;;;4979986;28;20038;-84
2023/06/03 10:47:25;;;;;;;5.72;2.65;;;28.70;36.10;;;;;;4982023;28;20054;-83
2023/06/03 10:50:11;;;;;;;3.60;1.70;;;28.80;36.00;;;;;;4975900;28;20034;-83
2023/06/03 10:53:09;;;;;;;5.43;2.10;;;28.90;35.90;;;;;;4983674;28;20042;-90
2023/06/03 10:55:51;;;;;;;3.90;1.70;;;29.00;35.70;;;;;;4979291;28;20112;-87
2023/06/03 10:58:20;;;;;;;3.67;2.03;;;29.10;35.70;;;;;;4987260;28;20041;-93
2023/06/03 11:01:05;;;;;;;5.82;2.03;;;29.30;35.70;;;;;;4992020;28;20038;-92
2023/06/03 11:03:59;;;;;;;3.88;2.08;;;29.50;35.50;;;;;;4980399;28;20058;-90
2023/06/03 11:06:43;;;;;;;4.55;1.67;;;29.70;35.30;;;;;;4955861;28;20045;-88
2023/06/03 11:09:18;;;;;;;3.00;1.70;;;29.90;35.40;;;;;;4989162;28;20049;-89
2023/06/03 11:11:48;;;;;;;3.13;1.70;;;30.10;35.30;;;;;;4979204;28;20046;-90
2023/06/03 11:14:29;;;;;;;5.60;1.95;;;30.30;35.20;;;;;;4991435;28;20034;-89
2023/06/03 11:17:05;;;;;;;4.70;1.50;;;30.50;35.00;;;;;;4965021;28;20119;-90
2023/06/03 11:19:34;;;;;;;5.18;2.28;;;30.60;34.90;;;;;;4983044;28;20064;-89
2023/06/03 11:22:04;;;;;;;3.88;1.80;;;30.80;34.70;;;;;;4976130;28;20410;-90
2023/06/03 11:24:46;;;;;;;3.45;1.42;;;31.00;34.50;;;;;;4978070;28;20597;-89
2023/06/03 11:27:15;;;;;;;5.20;1.60;;;31.10;34.30;;;;;;4980500;28;20057;-88
2023/06/03 11:29:45;;;;;;;3.70;1.50;;;31.30;34.30;;;;;;4963816;28;20026;-87
2023/06/03 11:32:12;;;;;;;4.22;1.77;;;31.50;34.10;;;;;;4979261;28;20050;-87
2023/06/03 11:34:42;;;;;;;3.08;1.70;;;31.60;34.00;;;;;;4988115;28;20038;-87
2023/06/03 11:37:08;;;;;;;5.32;2.22;;;31.70;33.90;;;;;;4972790;28;20085;-86
2023/06/03 11:40:08;;;;;;;2.83;1.48;;;31.80;33.80;;;;;;4969491;28;20505;-88
2023/06/03 11:42:54;;;;;;;2.90;1.80;;;32.00;33.60;;;;;;4979973;28;20053;-88
2023/06/03 11:45:29;;;;;;;3.15;2.13;;;32.10;33.50;;;;;;4982834;28;20410;-89
2023/06/03 11:48:05;;;;;;;3.92;2.08;;;32.30;33.80;;;;;;4978900;28;20413;-89
2023/06/03 11:50:33;;;;;;;4.80;2.55;;;32.30;33.50;;;;;;4975845;28;20074;-90
2023/06/03 11:53:00;;;;;;;3.83;1.88;;;32.50;33.50;;;;;;4975673;28;20034;-89
2023/06/03 11:55:32;;;;;;;4.55;2.65;;;32.60;33.40;;;;;;4984369;28;20050;-88
2023/06/03 11:58:11;;;;;;;3.40;2.67;;;32.60;33.20;;;;;;4977276;28;20117;-89
2023/06/03 12:00:38;;;;;;;6.60;4.57;;;32.70;33.10;;;;;;4981052;28;20038;-85
2023/06/03 12:03:14;;;;;;;7.18;4.65;;;32.80;33.30;;;;;;4976798;28;20141;-86
2023/06/03 12:05:53;;;;;;;4.75;3.40;;;32.90;33.50;;;;;;4970544;28;20131;-87
2023/06/03 12:08:19;;;;;;;5.35;3.80;;;33.00;33.40;;;;;;4978236;28;20041;-87
2023/06/03 12:11:03;;;;;;;7.40;4.88;;;33.10;33.40;;;;;;4976083;28;20038;-88
2023/06/03 12:13:41;;;;;;;6.13;4.50;;;33.20;33.40;;;;;;4979193;28;20040;-86
2023/06/03 12:16:07;;;;;;;10.98;4.30;;;33.20;33.50;;;;;;4982883;28;20050;-89
2023/06/03 12:18:33;;;;;;;7.03;2.33;;;33.20;33.50;;;;;;4971155;28;20038;-90
2023/06/03 12:21:23;;;;;;;5.32;2.08;;;33.10;33.00;;;;;;4993158;28;20050;-83
2023/06/03 12:23:49;;;;;;;4.82;2.05;;;32.70;32.60;;;;;;4993095;28;20049;-84
2023/06/03 12:26:19;;;;;;;5.00;2.05;;;32.40;32.50;;;;;;4978552;28;20212;-85
2023/06/03 12:28:48;;;;;;;6.10;1.88;;;32.00;32.30;;;;;;4978377;28;20229;-87
2023/06/03 12:31:20;;;;;;;4.47;2.47;;;31.80;32.30;;;;;;4977126;28;20521;-87
2023/06/03 12:33:46;;;;;;;3.65;1.95;;;31.50;32.30;;;;;;4987083;28;20034;-87
2023/06/03 12:36:14;;;;;;;5.55;2.55;;;31.40;32.40;;;;;;4989562;28;20591;-84
2023/06/03 12:38:56;;;;;;;6.10;2.22;;;31.20;32.40;;;;;;4981735;28;20030;-88
2023/06/03 12:41:23;;;;;;;6.20;2.05;;;31.00;32.30;;;;;;4968267;28;20378;-89
2023/06/03 12:44:02;;;;;;;6.38;2.03;;;30.90;32.30;;;;;;4987945;28;20042;-85
2023/06/03 12:46:31;;;;;;;5.18;2.55;;;30.80;32.20;;;;;;4996284;28;20076;-88
2023/06/03 12:49:16;;;;;;;7.68;2.38;;;30.70;32.30;;;;;;4980749;28;20233;-86
2023/06/03 12:51:42;;;;;;;5.22;2.53;;;30.70;32.30;;;;;;4965972;28;20584;-86
2023/06/03 12:54:08;;;;;;;5.13;2.47;;;30.50;32.30;;;;;;4985339;28;20484;-84
2023/06/03 12:56:34;;;;;;;6.95;2.50;;;30.50;32.20;;;;;;4997363;28;20038;-91
2023/06/03 12:59:03;;;;;;;4.70;2.00;;;30.50;32.20;;;;;;4989374;28;20394;-93
2023/06/03 13:01:31;;;;;;;7.45;2.45;;;30.50;32.10;;;;;;4990708;28;20350;-87
2023/06/03 13:03:58;;;;;;;4.60;1.95;;;30.50;32.20;;;;;;4985265;28;20038;-88
2023/06/03 13:06:25;;;;;;;6.63;2.15;;;30.50;32.30;;;;;;4981366;28;20034;-92
2023/06/03 13:08:54;;;;;;;4.65;2.58;;;30.50;32.30;;;;;;4986257;28;20207;-88